sensor_id;sensor_type;location;lat;lon;timestamp;temperature;humidity
47520;DHT22;33252;48.122;11.538;2022-09-12T00:00:12;12.00;99.90
47520;DHT22;33252;48.122;11.538;2022-09-12T00:02:38;12.10;99.90
47520;DHT22;33252;48.122;11.538;2022-09-12T00:05:04;12.10;99.90
47520;DHT22;33252;48.122;11.538;2022-09-12T00:07:32;11.90;99.90
47520;DHT22;33252;48.122;11.538;2022-09-12T00:09:58;12.00;99.90
47520;DHT22;33252;48.122;11.538;2022-09-12T00:12:24;11.90;99.90
47520;DHT22;33252;48.122;11.538;2022-09-12T00:14:49;11.90;99.90
47520;DHT22;33252;48.122;11.538;2022-09-12T00:17:15;11.80;99.90
47520;DHT22;33252;48.122;11.538;2022-09-12T00:19:40;11.70;99.90
47520;DHT22;33252;48.122;11.538;2022-09-12T00:22:06;11.80;99.90
47520;DHT22;33252;48.122;11.538;2022-09-12T00:24:32;12.00;99.90
47520;DHT22;33252;48.122;11.538;2022-09-12T00:26:58;12.10;99.90
47520;DHT22;33252;48.122;11.538;2022-09-12T00:29:24;12.00;99.90
47520;DHT22;33252;48.122;11.538;2022-09-12T00:31:50;11.80;99.90
47520;DHT22;33252;48.122;11.538;2022-09-12T00:34:16;11.70;99.90
47520;DHT22;33252;48.122;11.538;2022-09-12T00:36:41;11.70;99.90
47520;DHT22;33252;48.122;11.538;2022-09-12T00:39:07;11.70;99.90
47520;DHT22;33252;48.122;11.538;2022-09-12T00:41:36;11.70;99.90
47520;DHT22;33252;48.122;11.538;2022-09-12T00:46:43;11.50;99.90
47520;DHT22;33252;48.122;11.538;2022-09-12T00:49:18;11.50;99.90
47520;DHT22;33252;48.122;11.538;2022-09-12T00:52:15;11.50;99.90
47520;DHT22;33252;48.122;11.538;2022-09-12T00:55:11;11.60;99.90
47520;DHT22;33252;48.122;11.538;2022-09-12T00:57:53;11.60;99.90
47520;DHT22;33252;48.122;11.538;2022-09-12T01:00:22;11.50;99.90
47520;DHT22;33252;48.122;11.538;2022-09-12T01:02:54;11.50;99.90
47520;DHT22;33252;48.122;11.538;2022-09-12T01:05:22;11.60;99.90
47520;DHT22;33252;48.122;11.538;2022-09-12T01:07:49;11.60;99.90
47520;DHT22;33252;48.122;11.538;2022-09-12T01:10:16;11.40;99.90
47520;DHT22;33252;48.122;11.538;2022-09-12T01:12:43;11.30;99.90
47520;DHT22;33252;48.122;11.538;2022-09-12T01:15:10;11.40;99.90
47520;DHT22;33252;48.122;11.538;2022-09-12T01:40:43;11.30;99.90
47520;DHT22;33252;48.122;11.538;2022-09-12T01:48:56;11.30;99.90
47520;DHT22;33252;48.122;11.538;2022-09-12T01:53:56;11.30;99.90
47520;DHT22;33252;48.122;11.538;2022-09-12T01:56:27;11.30;99.90
47520;DHT22;33252;48.122;11.538;2022-09-12T01:58:56;11.40;99.90
47520;DHT22;33252;48.122;11.538;2022-09-12T02:01:27;11.50;99.90
47520;DHT22;33252;48.122;11.538;2022-09-12T02:04:04;11.40;99.90
47520;DHT22;33252;48.122;11.538;2022-09-12T02:06:53;11.30;99.90
47520;DHT22;33252;48.122;11.538;2022-09-12T02:09:24;11.20;99.90
47520;DHT22;33252;48.122;11.538;2022-09-12T02:11:54;11.10;99.90
47520;DHT22;33252;48.122;11.538;2022-09-12T02:14:24;11.20;99.90
47520;DHT22;33252;48.122;11.538;2022-09-12T02:16:55;11.20;99.90
47520;DHT22;33252;48.122;11.538;2022-09-12T02:19:27;11.10;99.90
47520;DHT22;33252;48.122;11.538;2022-09-12T02:21:59;11.00;99.90
47520;DHT22;33252;48.122;11.538;2022-09-12T02:24:35;11.20;99.90
47520;DHT22;33252;48.122;11.538;2022-09-12T02:27:07;11.40;99.90
47520;DHT22;33252;48.122;11.538;2022-09-12T02:29:34;11.50;99.90
47520;DHT22;33252;48.122;11.538;2022-09-12T02:32:04;11.50;99.90
47520;DHT22;33252;48.122;11.538;2022-09-12T02:38:23;11.30;99.90
47520;DHT22;33252;48.122;11.538;2022-09-12T02:40:52;11.30;99.90
47520;DHT22;33252;48.122;11.538;2022-09-12T02:43:18;11.40;99.90
47520;DHT22;33252;48.122;11.538;2022-09-12T02:45:44;11.40;99.90
47520;DHT22;33252;48.122;11.538;2022-09-12T02:48:18;11.50;99.90
47520;DHT22;33252;48.122;11.538;2022-09-12T02:50:45;11.40;99.90
47520;DHT22;33252;48.122;11.538;2022-09-12T02:53:11;11.40;99.90
47520;DHT22;33252;48.122;11.538;2022-09-12T02:55:39;11.40;99.90
47520;DHT22;33252;48.122;11.538;2022-09-12T02:58:09;11.40;99.90
47520;DHT22;33252;48.122;11.538;2022-09-12T03:00:43;11.40;99.90
47520;DHT22;33252;48.122;11.538;2022-09-12T03:03:43;11.50;99.90
47520;DHT22;33252;48.122;11.538;2022-09-12T03:06:16;11.40;99.90
47520;DHT22;33252;48.122;11.538;2022-09-12T03:08:49;11.30;99.90
47520;DHT22;33252;48.122;11.538;2022-09-12T03:17:14;11.20;99.90
47520;DHT22;33252;48.122;11.538;2022-09-12T03:19:51;11.20;99.90
47520;DHT22;33252;48.122;11.538;2022-09-12T03:22:33;11.00;99.90
47520;DHT22;33252;48.122;11.538;2022-09-12T03:25:11;10.80;99.90
47520;DHT22;33252;48.122;11.538;2022-09-12T03:27:44;10.80;99.90
47520;DHT22;33252;48.122;11.538;2022-09-12T03:30:11;10.90;99.90
47520;DHT22;33252;48.122;11.538;2022-09-12T03:32:45;10.90;99.90
47520;DHT22;33252;48.122;11.538;2022-09-12T03:35:13;10.70;99.90
47520;DHT22;33252;48.122;11.538;2022-09-12T03:37:39;10.60;99.90
47520;DHT22;33252;48.122;11.538;2022-09-12T03:40:06;10.70;99.90
47520;DHT22;33252;48.122;11.538;2022-09-12T03:42:32;10.70;99.90
47520;DHT22;33252;48.122;11.538;2022-09-12T03:44:58;10.60;99.90
47520;DHT22;33252;48.122;11.538;2022-09-12T03:47:23;10.60;99.90
47520;DHT22;33252;48.122;11.538;2022-09-12T03:49:49;10.60;99.90
47520;DHT22;33252;48.122;11.538;2022-09-12T03:52:14;10.50;99.90
47520;DHT22;33252;48.122;11.538;2022-09-12T03:54:40;10.50;99.90
47520;DHT22;33252;48.122;11.538;2022-09-12T03:57:06;10.60;99.90
47520;DHT22;33252;48.122;11.538;2022-09-12T03:59:31;10.50;99.90
47520;DHT22;33252;48.122;11.538;2022-09-12T04:10:19;10.40;99.90
47520;DHT22;33252;48.122;11.538;2022-09-12T04:12:44;10.40;99.90
47520;DHT22;33252;48.122;11.538;2022-09-12T04:15:10;10.30;99.90
47520;DHT22;33252;48.122;11.538;2022-09-12T04:17:36;10.30;99.90
47520;DHT22;33252;48.122;11.538;2022-09-12T04:20:01;10.40;99.90
47520;DHT22;33252;48.122;11.538;2022-09-12T04:22:27;10.40;99.90
47520;DHT22;33252;48.122;11.538;2022-09-12T04:24:54;10.30;99.90
47520;DHT22;33252;48.122;11.538;2022-09-12T04:27:20;10.30;99.90
47520;DHT22;33252;48.122;11.538;2022-09-12T04:29:45;10.30;99.90
47520;DHT22;33252;48.122;11.538;2022-09-12T04:32:11;10.40;99.90
47520;DHT22;33252;48.122;11.538;2022-09-12T04:34:37;10.20;99.90
47520;DHT22;33252;48.122;11.538;2022-09-12T04:37:03;10.10;99.90
47520;DHT22;33252;48.122;11.538;2022-09-12T04:39:29;10.10;99.90
47520;DHT22;33252;48.122;11.538;2022-09-12T04:41:54;10.10;99.90
47520;DHT22;33252;48.122;11.538;2022-09-12T04:44:21;10.10;99.90
47520;DHT22;33252;48.122;11.538;2022-09-12T04:46:47;10.10;99.90
47520;DHT22;33252;48.122;11.538;2022-09-12T04:49:14;10.20;99.90
47520;DHT22;33252;48.122;11.538;2022-09-12T04:51:43;10.20;99.90
47520;DHT22;33252;48.122;11.538;2022-09-12T04:54:15;10.20;99.90
47520;DHT22;33252;48.122;11.538;2022-09-12T04:56:43;10.10;99.90
47520;DHT22;33252;48.122;11.538;2022-09-12T04:59:10;10.10;99.90
47520;DHT22;33252;48.122;11.538;2022-09-12T05:01:37;10.10;99.90
47520;DHT22;33252;48.122;11.538;2022-09-12T05:04:03;10.10;99.90
47520;DHT22;33252;48.122;11.538;2022-09-12T05:06:31;10.20;99.90
47520;DHT22;33252;48.122;11.538;2022-09-12T05:08:58;10.20;99.90
47520;DHT22;33252;48.122;11.538;2022-09-12T05:11:30;10.10;99.90
47520;DHT22;33252;48.122;11.538;2022-09-12T05:13:57;10.00;99.90
47520;DHT22;33252;48.122;11.538;2022-09-12T05:16:24;10.00;99.90
47520;DHT22;33252;48.122;11.538;2022-09-12T05:18:50;10.20;99.90
47520;DHT22;33252;48.122;11.538;2022-09-12T05:21:19;10.20;99.90
47520;DHT22;33252;48.122;11.538;2022-09-12T05:23:45;10.20;99.90
47520;DHT22;33252;48.122;11.538;2022-09-12T05:26:14;10.30;99.90
47520;DHT22;33252;48.122;11.538;2022-09-12T05:28:41;10.20;99.90
47520;DHT22;33252;48.122;11.538;2022-09-12T05:31:14;10.30;99.90
47520;DHT22;33252;48.122;11.538;2022-09-12T05:33:42;10.40;99.90
47520;DHT22;33252;48.122;11.538;2022-09-12T05:36:13;10.40;99.90
47520;DHT22;33252;48.122;11.538;2022-09-12T05:38:39;10.50;99.90
47520;DHT22;33252;48.122;11.538;2022-09-12T05:41:10;10.40;99.90
47520;DHT22;33252;48.122;11.538;2022-09-12T05:43:37;10.50;99.90
47520;DHT22;33252;48.122;11.538;2022-09-12T05:46:05;10.50;99.90
47520;DHT22;33252;48.122;11.538;2022-09-12T05:48:34;10.70;99.90
47520;DHT22;33252;48.122;11.538;2022-09-12T05:51:01;10.60;99.90
47520;DHT22;33252;48.122;11.538;2022-09-12T05:53:29;10.70;99.90
47520;DHT22;33252;48.122;11.538;2022-09-12T05:58:32;10.90;99.90
47520;DHT22;33252;48.122;11.538;2022-09-12T06:01:03;11.00;99.90
47520;DHT22;33252;48.122;11.538;2022-09-12T06:03:29;11.10;99.90
47520;DHT22;33252;48.122;11.538;2022-09-12T06:05:56;11.00;99.90
47520;DHT22;33252;48.122;11.538;2022-09-12T06:08:21;11.10;99.90
47520;DHT22;33252;48.122;11.538;2022-09-12T06:10:47;11.10;99.90
47520;DHT22;33252;48.122;11.538;2022-09-12T06:13:13;11.10;99.90
47520;DHT22;33252;48.122;11.538;2022-09-12T06:15:39;11.20;99.90
47520;DHT22;33252;48.122;11.538;2022-09-12T06:18:05;11.30;99.90
47520;DHT22;33252;48.122;11.538;2022-09-12T06:20:30;11.40;99.90
47520;DHT22;33252;48.122;11.538;2022-09-12T06:22:56;11.40;99.90
47520;DHT22;33252;48.122;11.538;2022-09-12T06:25:21;11.50;99.90
47520;DHT22;33252;48.122;11.538;2022-09-12T06:27:47;11.50;99.90
47520;DHT22;33252;48.122;11.538;2022-09-12T06:30:13;11.50;99.90
47520;DHT22;33252;48.122;11.538;2022-09-12T06:32:38;11.60;99.90
47520;DHT22;33252;48.122;11.538;2022-09-12T06:35:04;11.60;99.90
47520;DHT22;33252;48.122;11.538;2022-09-12T06:37:30;11.70;99.90
47520;DHT22;33252;48.122;11.538;2022-09-12T06:39:57;11.80;99.90
47520;DHT22;33252;48.122;11.538;2022-09-12T06:42:23;12.00;99.90
47520;DHT22;33252;48.122;11.538;2022-09-12T06:44:48;12.00;99.90
47520;DHT22;33252;48.122;11.538;2022-09-12T06:47:14;12.10;99.90
47520;DHT22;33252;48.122;11.538;2022-09-12T06:49:40;12.10;99.90
47520;DHT22;33252;48.122;11.538;2022-09-12T06:52:06;12.20;99.90
47520;DHT22;33252;48.122;11.538;2022-09-12T06:54:31;12.20;99.90
47520;DHT22;33252;48.122;11.538;2022-09-12T06:56:57;12.30;99.90
47520;DHT22;33252;48.122;11.538;2022-09-12T06:59:22;12.40;99.90
47520;DHT22;33252;48.122;11.538;2022-09-12T07:01:49;12.40;99.90
47520;DHT22;33252;48.122;11.538;2022-09-12T07:04:15;12.50;99.90
47520;DHT22;33252;48.122;11.538;2022-09-12T07:06:41;12.60;99.90
47520;DHT22;33252;48.122;11.538;2022-09-12T07:09:12;12.70;99.90
47520;DHT22;33252;48.122;11.538;2022-09-12T07:11:39;12.80;99.90
47520;DHT22;33252;48.122;11.538;2022-09-12T07:14:06;12.90;99.90
47520;DHT22;33252;48.122;11.538;2022-09-12T07:16:34;12.90;99.90
47520;DHT22;33252;48.122;11.538;2022-09-12T07:19:02;12.90;99.90
47520;DHT22;33252;48.122;11.538;2022-09-12T07:21:28;13.00;99.90
47520;DHT22;33252;48.122;11.538;2022-09-12T07:23:55;13.00;99.90
47520;DHT22;33252;48.122;11.538;2022-09-12T07:26:22;13.20;99.90
47520;DHT22;33252;48.122;11.538;2022-09-12T07:28:52;13.30;99.90
47520;DHT22;33252;48.122;11.538;2022-09-12T07:31:20;13.30;99.90
47520;DHT22;33252;48.122;11.538;2022-09-12T07:33:47;13.40;99.90
47520;DHT22;33252;48.122;11.538;2022-09-12T07:36:16;13.40;99.90
47520;DHT22;33252;48.122;11.538;2022-09-12T07:38:42;13.40;99.90
47520;DHT22;33252;48.122;11.538;2022-09-12T07:41:18;13.50;99.90
47520;DHT22;33252;48.122;11.538;2022-09-12T07:43:44;13.50;99.90
47520;DHT22;33252;48.122;11.538;2022-09-12T07:46:10;13.60;99.90
47520;DHT22;33252;48.122;11.538;2022-09-12T07:48:37;13.70;99.90
47520;DHT22;33252;48.122;11.538;2022-09-12T07:51:06;13.70;99.90
47520;DHT22;33252;48.122;11.538;2022-09-12T07:53:37;13.90;99.90
47520;DHT22;33252;48.122;11.538;2022-09-12T07:56:04;14.00;99.90
47520;DHT22;33252;48.122;11.538;2022-09-12T07:58:31;14.20;99.90
47520;DHT22;33252;48.122;11.538;2022-09-12T08:01:04;14.10;99.90
47520;DHT22;33252;48.122;11.538;2022-09-12T08:03:30;14.20;99.90
47520;DHT22;33252;48.122;11.538;2022-09-12T08:06:07;14.30;99.90
47520;DHT22;33252;48.122;11.538;2022-09-12T08:08:32;14.40;99.90
47520;DHT22;33252;48.122;11.538;2022-09-12T08:10:59;14.50;99.90
47520;DHT22;33252;48.122;11.538;2022-09-12T08:13:30;14.40;99.90
47520;DHT22;33252;48.122;11.538;2022-09-12T08:15:57;14.50;99.90
47520;DHT22;33252;48.122;11.538;2022-09-12T08:18:27;14.50;99.90
47520;DHT22;33252;48.122;11.538;2022-09-12T08:21:04;14.40;99.90
47520;DHT22;33252;48.122;11.538;2022-09-12T08:23:30;14.50;99.90
47520;DHT22;33252;48.122;11.538;2022-09-12T08:26:00;14.60;99.90
47520;DHT22;33252;48.122;11.538;2022-09-12T08:28:28;14.60;99.90
47520;DHT22;33252;48.122;11.538;2022-09-12T08:31:02;14.90;99.90
47520;DHT22;33252;48.122;11.538;2022-09-12T08:33:29;14.90;99.90
47520;DHT22;33252;48.122;11.538;2022-09-12T08:36:07;15.00;99.90
47520;DHT22;33252;48.122;11.538;2022-09-12T08:38:35;15.10;99.90
47520;DHT22;33252;48.122;11.538;2022-09-12T08:43:55;15.30;99.90
47520;DHT22;33252;48.122;11.538;2022-09-12T08:46:31;15.30;99.90
47520;DHT22;33252;48.122;11.538;2022-09-12T08:48:59;15.50;99.90
47520;DHT22;33252;48.122;11.538;2022-09-12T08:51:26;15.40;99.90
47520;DHT22;33252;48.122;11.538;2022-09-12T08:53:54;15.40;99.90
47520;DHT22;33252;48.122;11.538;2022-09-12T08:56:21;15.40;99.90
47520;DHT22;33252;48.122;11.538;2022-09-12T08:58:47;15.60;99.90
47520;DHT22;33252;48.122;11.538;2022-09-12T09:01:34;15.60;99.90
47520;DHT22;33252;48.122;11.538;2022-09-12T09:12:23;16.00;99.90
47520;DHT22;33252;48.122;11.538;2022-09-12T09:17:40;16.10;99.90
47520;DHT22;33252;48.122;11.538;2022-09-12T09:20:37;16.10;99.90
47520;DHT22;33252;48.122;11.538;2022-09-12T09:26:19;16.20;99.90
47520;DHT22;33252;48.122;11.538;2022-09-12T09:31:23;16.20;99.90
47520;DHT22;33252;48.122;11.538;2022-09-12T09:33:51;16.20;99.90
47520;DHT22;33252;48.122;11.538;2022-09-12T09:36:55;16.20;99.90
47520;DHT22;33252;48.122;11.538;2022-09-12T09:44:57;16.60;99.90
47520;DHT22;33252;48.122;11.538;2022-09-12T09:47:24;16.60;99.90
47520;DHT22;33252;48.122;11.538;2022-09-12T09:49:50;16.70;99.90
47520;DHT22;33252;48.122;11.538;2022-09-12T09:52:20;16.80;99.90
47520;DHT22;33252;48.122;11.538;2022-09-12T09:54:56;16.90;99.90
47520;DHT22;33252;48.122;11.538;2022-09-12T10:05:52;17.20;98.80
47520;DHT22;33252;48.122;11.538;2022-09-12T10:08:25;17.10;97.80
47520;DHT22;33252;48.122;11.538;2022-09-12T10:10:55;17.20;99.60
47520;DHT22;33252;48.122;11.538;2022-09-12T10:13:35;17.20;98.10
47520;DHT22;33252;48.122;11.538;2022-09-12T10:16:04;17.20;99.90
47520;DHT22;33252;48.122;11.538;2022-09-12T10:18:41;17.20;99.10
47520;DHT22;33252;48.122;11.538;2022-09-12T10:23:42;17.10;98.00
47520;DHT22;33252;48.122;11.538;2022-09-12T10:26:11;17.20;97.40
47520;DHT22;33252;48.122;11.538;2022-09-12T10:28:42;17.10;99.40
47520;DHT22;33252;48.122;11.538;2022-09-12T10:31:13;17.30;99.00
47520;DHT22;33252;48.122;11.538;2022-09-12T10:33:47;17.60;98.30
47520;DHT22;33252;48.122;11.538;2022-09-12T10:36:18;17.60;98.40
47520;DHT22;33252;48.122;11.538;2022-09-12T10:38:53;17.50;98.10
47520;DHT22;33252;48.122;11.538;2022-09-12T10:41:21;17.50;98.70
47520;DHT22;33252;48.122;11.538;2022-09-12T10:43:47;17.60;96.40
47520;DHT22;33252;48.122;11.538;2022-09-12T10:48:46;17.70;96.80
47520;DHT22;33252;48.122;11.538;2022-09-12T10:53:51;17.70;98.40
47520;DHT22;33252;48.122;11.538;2022-09-12T10:56:20;17.70;97.10
47520;DHT22;33252;48.122;11.538;2022-09-12T11:07:44;17.90;96.30
47520;DHT22;33252;48.122;11.538;2022-09-12T11:20:47;18.40;96.70
47520;DHT22;33252;48.122;11.538;2022-09-12T11:33:45;18.60;94.70
47520;DHT22;33252;48.122;11.538;2022-09-12T11:36:44;18.80;96.10
47520;DHT22;33252;48.122;11.538;2022-09-12T11:39:43;18.70;94.00
47520;DHT22;33252;48.122;11.538;2022-09-12T11:42:17;18.70;95.60
47520;DHT22;33252;48.122;11.538;2022-09-12T11:45:04;18.70;95.40
47520;DHT22;33252;48.122;11.538;2022-09-12T11:47:35;18.80;93.60
47520;DHT22;33252;48.122;11.538;2022-09-12T11:50:05;18.80;93.90
47520;DHT22;33252;48.122;11.538;2022-09-12T11:52:37;19.00;94.00
47520;DHT22;33252;48.122;11.538;2022-09-12T11:55:11;19.00;93.80
47520;DHT22;33252;48.122;11.538;2022-09-12T11:57:44;19.00;93.10
47520;DHT22;33252;48.122;11.538;2022-09-12T12:05:36;19.10;93.30
47520;DHT22;33252;48.122;11.538;2022-09-12T12:08:05;19.30;92.60
47520;DHT22;33252;48.122;11.538;2022-09-12T12:10:35;19.40;94.10
47520;DHT22;33252;48.122;11.538;2022-09-12T12:15:58;19.70;92.50
47520;DHT22;33252;48.122;11.538;2022-09-12T12:18:27;19.70;93.70
47520;DHT22;33252;48.122;11.538;2022-09-12T12:20:54;19.70;93.20
47520;DHT22;33252;48.122;11.538;2022-09-12T12:23:32;20.10;93.10
47520;DHT22;33252;48.122;11.538;2022-09-12T12:26:00;20.40;93.40
47520;DHT22;33252;48.122;11.538;2022-09-12T12:31:08;20.70;93.00
47520;DHT22;33252;48.122;11.538;2022-09-12T12:36:27;20.90;91.60
47520;DHT22;33252;48.122;11.538;2022-09-12T12:38:53;21.30;91.90
47520;DHT22;33252;48.122;11.538;2022-09-12T12:43:45;22.00;89.20
47520;DHT22;33252;48.122;11.538;2022-09-12T12:46:16;22.40;85.60
47520;DHT22;33252;48.122;11.538;2022-09-12T12:54:08;23.10;86.70
47520;DHT22;33252;48.122;11.538;2022-09-12T12:57:00;23.30;81.20
47520;DHT22;33252;48.122;11.538;2022-09-12T12:59:26;23.40;80.10
47520;DHT22;33252;48.122;11.538;2022-09-12T13:01:54;23.80;83.40
47520;DHT22;33252;48.122;11.538;2022-09-12T13:04:23;23.60;80.00
47520;DHT22;33252;48.122;11.538;2022-09-12T13:06:57;23.60;84.00
47520;DHT22;33252;48.122;11.538;2022-09-12T13:09:49;24.00;83.40
47520;DHT22;33252;48.122;11.538;2022-09-12T13:12:23;24.10;82.40
47520;DHT22;33252;48.122;11.538;2022-09-12T13:14:51;24.20;82.50
47520;DHT22;33252;48.122;11.538;2022-09-12T13:17:24;24.40;79.60
47520;DHT22;33252;48.122;11.538;2022-09-12T13:22:45;24.10;79.70
47520;DHT22;33252;48.122;11.538;2022-09-12T13:25:34;23.90;77.90
47520;DHT22;33252;48.122;11.538;2022-09-12T13:30:41;24.70;80.60
47520;DHT22;33252;48.122;11.538;2022-09-12T13:35:49;25.00;79.80
47520;DHT22;33252;48.122;11.538;2022-09-12T13:44:11;24.90;79.30
47520;DHT22;33252;48.122;11.538;2022-09-12T13:46:38;25.30;78.80
47520;DHT22;33252;48.122;11.538;2022-09-12T13:49:31;25.60;76.20
47520;DHT22;33252;48.122;11.538;2022-09-12T13:52:05;25.90;77.70
47520;DHT22;33252;48.122;11.538;2022-09-12T13:54:33;25.90;76.10
47520;DHT22;33252;48.122;11.538;2022-09-12T13:57:03;25.50;77.90
47520;DHT22;33252;48.122;11.538;2022-09-12T13:59:37;25.20;78.60
47520;DHT22;33252;48.122;11.538;2022-09-12T14:02:21;25.60;77.50
47520;DHT22;33252;48.122;11.538;2022-09-12T14:04:47;25.20;78.40
47520;DHT22;33252;48.122;11.538;2022-09-12T14:10:15;25.60;76.70
47520;DHT22;33252;48.122;11.538;2022-09-12T14:12:42;25.30;73.60
47520;DHT22;33252;48.122;11.538;2022-09-12T14:15:22;25.20;74.70
47520;DHT22;33252;48.122;11.538;2022-09-12T14:17:52;25.50;77.20
47520;DHT22;33252;48.122;11.538;2022-09-12T14:20:19;25.60;74.20
47520;DHT22;33252;48.122;11.538;2022-09-12T14:22:49;25.30;77.30
47520;DHT22;33252;48.122;11.538;2022-09-12T14:25:23;25.80;74.90
47520;DHT22;33252;48.122;11.538;2022-09-12T14:27:51;25.70;75.40
47520;DHT22;33252;48.122;11.538;2022-09-12T14:38:45;24.50;78.30
47520;DHT22;33252;48.122;11.538;2022-09-12T14:41:59;24.80;77.70
47520;DHT22;33252;48.122;11.538;2022-09-12T14:44:21;24.80;78.10
47520;DHT22;33252;48.122;11.538;2022-09-12T14:46:49;24.90;76.30
47520;DHT22;33252;48.122;11.538;2022-09-12T14:51:57;24.60;77.00
47520;DHT22;33252;48.122;11.538;2022-09-12T14:56:55;24.20;78.00
47520;DHT22;33252;48.122;11.538;2022-09-12T15:04:45;24.20;80.20
47520;DHT22;33252;48.122;11.538;2022-09-12T15:07:36;24.50;79.50
47520;DHT22;33252;48.122;11.538;2022-09-12T15:10:22;25.10;77.30
47520;DHT22;33252;48.122;11.538;2022-09-12T15:13:02;25.50;76.70
47520;DHT22;33252;48.122;11.538;2022-09-12T15:15:28;26.20;75.30
47520;DHT22;33252;48.122;11.538;2022-09-12T15:17:54;27.00;73.00
47520;DHT22;33252;48.122;11.538;2022-09-12T15:20:20;27.10;72.80
47520;DHT22;33252;48.122;11.538;2022-09-12T15:22:46;27.50;71.00
47520;DHT22;33252;48.122;11.538;2022-09-12T15:25:12;27.20;73.10
47520;DHT22;33252;48.122;11.538;2022-09-12T15:27:38;27.00;73.50
47520;DHT22;33252;48.122;11.538;2022-09-12T15:30:06;26.20;73.20
47520;DHT22;33252;48.122;11.538;2022-09-12T15:32:33;26.10;74.80
47520;DHT22;33252;48.122;11.538;2022-09-12T15:34:58;26.60;72.20
47520;DHT22;33252;48.122;11.538;2022-09-12T15:37:24;25.60;75.30
47520;DHT22;33252;48.122;11.538;2022-09-12T15:39:50;25.50;76.20
47520;DHT22;33252;48.122;11.538;2022-09-12T15:42:18;24.60;77.00
47520;DHT22;33252;48.122;11.538;2022-09-12T15:44:49;24.10;78.00
47520;DHT22;33252;48.122;11.538;2022-09-12T15:47:15;24.10;77.80
47520;DHT22;33252;48.122;11.538;2022-09-12T15:49:40;24.70;77.80
47520;DHT22;33252;48.122;11.538;2022-09-12T15:52:10;25.00;77.40
47520;DHT22;33252;48.122;11.538;2022-09-12T15:54:37;24.20;78.10
47520;DHT22;33252;48.122;11.538;2022-09-12T15:57:03;24.50;78.00
47520;DHT22;33252;48.122;11.538;2022-09-12T15:59:29;24.60;77.30
47520;DHT22;33252;48.122;11.538;2022-09-12T16:01:55;24.70;76.80
47520;DHT22;33252;48.122;11.538;2022-09-12T16:04:24;23.60;77.60
47520;DHT22;33252;48.122;11.538;2022-09-12T16:06:51;23.20;79.70
47520;DHT22;33252;48.122;11.538;2022-09-12T16:09:17;22.80;81.10
47520;DHT22;33252;48.122;11.538;2022-09-12T16:11:43;22.40;82.90
47520;DHT22;33252;48.122;11.538;2022-09-12T16:14:13;22.10;82.90
47520;DHT22;33252;48.122;11.538;2022-09-12T16:16:39;21.90;84.30
47520;DHT22;33252;48.122;11.538;2022-09-12T16:19:05;21.80;84.90
47520;DHT22;33252;48.122;11.538;2022-09-12T16:21:31;21.40;83.90
47520;DHT22;33252;48.122;11.538;2022-09-12T16:23:56;21.40;85.80
47520;DHT22;33252;48.122;11.538;2022-09-12T16:26:22;21.40;87.10
47520;DHT22;33252;48.122;11.538;2022-09-12T16:28:56;21.20;86.30
47520;DHT22;33252;48.122;11.538;2022-09-12T16:31:22;21.00;87.10
47520;DHT22;33252;48.122;11.538;2022-09-12T16:33:48;20.90;88.60
47520;DHT22;33252;48.122;11.538;2022-09-12T16:36:16;20.70;89.40
47520;DHT22;33252;48.122;11.538;2022-09-12T16:38:43;20.70;87.30
47520;DHT22;33252;48.122;11.538;2022-09-12T16:41:10;20.70;89.30
47520;DHT22;33252;48.122;11.538;2022-09-12T16:43:36;20.70;88.20
47520;DHT22;33252;48.122;11.538;2022-09-12T16:46:09;20.50;90.10
47520;DHT22;33252;48.122;11.538;2022-09-12T16:48:36;20.40;90.40
47520;DHT22;33252;48.122;11.538;2022-09-12T16:51:04;20.30;90.50
47520;DHT22;33252;48.122;11.538;2022-09-12T16:53:34;20.30;90.00
47520;DHT22;33252;48.122;11.538;2022-09-12T16:56:01;20.20;90.20
47520;DHT22;33252;48.122;11.538;2022-09-12T16:58:27;20.20;91.10
47520;DHT22;33252;48.122;11.538;2022-09-12T17:01:05;20.10;90.60
47520;DHT22;33252;48.122;11.538;2022-09-12T17:03:31;20.20;90.60
47520;DHT22;33252;48.122;11.538;2022-09-12T17:05:59;20.00;91.20
47520;DHT22;33252;48.122;11.538;2022-09-12T17:08:26;19.90;90.70
47520;DHT22;33252;48.122;11.538;2022-09-12T17:10:52;19.80;90.40
47520;DHT22;33252;48.122;11.538;2022-09-12T17:13:18;19.80;90.90
47520;DHT22;33252;48.122;11.538;2022-09-12T17:15:43;19.90;90.40
47520;DHT22;33252;48.122;11.538;2022-09-12T17:18:10;19.80;90.30
47520;DHT22;33252;48.122;11.538;2022-09-12T17:20:35;19.80;89.00
47520;DHT22;33252;48.122;11.538;2022-09-12T17:23:01;19.80;90.40
47520;DHT22;33252;48.122;11.538;2022-09-12T17:25:26;19.70;90.90
47520;DHT22;33252;48.122;11.538;2022-09-12T17:27:52;19.50;91.00
47520;DHT22;33252;48.122;11.538;2022-09-12T17:30:18;19.50;91.10
47520;DHT22;33252;48.122;11.538;2022-09-12T17:32:43;19.40;91.20
47520;DHT22;33252;48.122;11.538;2022-09-12T17:35:09;19.40;91.00
47520;DHT22;33252;48.122;11.538;2022-09-12T17:37:35;19.20;91.10
47520;DHT22;33252;48.122;11.538;2022-09-12T17:40:02;19.10;91.80
47520;DHT22;33252;48.122;11.538;2022-09-12T17:42:28;19.10;92.00
47520;DHT22;33252;48.122;11.538;2022-09-12T17:44:54;19.00;91.70
47520;DHT22;33252;48.122;11.538;2022-09-12T17:47:22;18.90;92.30
47520;DHT22;33252;48.122;11.538;2022-09-12T17:49:48;18.80;92.70
47520;DHT22;33252;48.122;11.538;2022-09-12T17:52:15;18.70;92.60
47520;DHT22;33252;48.122;11.538;2022-09-12T17:54:41;18.70;93.00
47520;DHT22;33252;48.122;11.538;2022-09-12T17:57:07;18.60;93.50
47520;DHT22;33252;48.122;11.538;2022-09-12T17:59:32;18.50;93.20
47520;DHT22;33252;48.122;11.538;2022-09-12T18:01:58;18.50;93.50
47520;DHT22;33252;48.122;11.538;2022-09-12T18:04:41;18.40;93.50
47520;DHT22;33252;48.122;11.538;2022-09-12T18:07:17;18.40;93.20
47520;DHT22;33252;48.122;11.538;2022-09-12T18:09:44;18.20;93.90
47520;DHT22;33252;48.122;11.538;2022-09-12T18:12:13;18.20;94.20
47520;DHT22;33252;48.122;11.538;2022-09-12T18:14:39;18.20;94.10
47520;DHT22;33252;48.122;11.538;2022-09-12T18:17:05;18.10;94.30
47520;DHT22;33252;48.122;11.538;2022-09-12T18:19:33;18.10;94.50
47520;DHT22;33252;48.122;11.538;2022-09-12T18:22:00;18.10;94.80
47520;DHT22;33252;48.122;11.538;2022-09-12T18:24:26;18.00;94.70
47520;DHT22;33252;48.122;11.538;2022-09-12T18:26:52;18.00;94.90
47520;DHT22;33252;48.122;11.538;2022-09-12T18:29:21;17.90;95.20
47520;DHT22;33252;48.122;11.538;2022-09-12T18:31:47;17.80;95.20